sensor_id;sensor_type;location;lat;lon;timestamp;P1;durP1;ratioP1;P2;durP2;ratioP2
70975;SDS011;58635;51.198;6.010;2023-03-01T00:01:03;9.00;;;5.63;;
70975;SDS011;58635;51.198;6.010;2023-03-01T00:03:30;8.75;;;5.75;;
70975;SDS011;58635;51.198;6.010;2023-03-01T00:05:56;8.38;;;5.78;;
70975;SDS011;58635;51.198;6.010;2023-03-01T00:08:22;6.88;;;5.55;;
70975;SDS011;58635;51.198;6.010;2023-03-01T00:10:47;7.18;;;5.75;;
70975;SDS011;58635;51.198;6.010;2023-03-01T00:13:13;8.55;;;5.55;;
70975;SDS011;58635;51.198;6.010;2023-03-01T00:15:39;8.52;;;5.40;;
70975;SDS011;58635;51.198;6.010;2023-03-01T00:18:06;9.43;;;6.13;;
70975;SDS011;58635;51.198;6.010;2023-03-01T00:20:33;8.35;;;5.85;;
70975;SDS011;58635;51.198;6.010;2023-03-01T00:22:59;7.40;;;5.53;;
70975;SDS011;58635;51.198;6.010;2023-03-01T00:25:24;8.80;;;5.82;;
70975;SDS011;58635;51.198;6.010;2023-03-01T00:27:50;7.90;;;5.93;;
70975;SDS011;58635;51.198;6.010;2023-03-01T00:30:15;10.15;;;6.03;;
70975;SDS011;58635;51.198;6.010;2023-03-01T00:32:40;8.50;;;6.15;;
70975;SDS011;58635;51.198;6.010;2023-03-01T00:35:06;9.73;;;6.30;;
70975;SDS011;58635;51.198;6.010;2023-03-01T00:37:32;8.43;;;6.10;;
70975;SDS011;58635;51.198;6.010;2023-03-01T00:39:57;9.15;;;5.85;;
70975;SDS011;58635;51.198;6.010;2023-03-01T00:42:23;8.48;;;6.13;;
70975;SDS011;58635;51.198;6.010;2023-03-01T00:44:48;9.60;;;5.85;;
70975;SDS011;58635;51.198;6.010;2023-03-01T00:47:13;11.98;;;5.70;;
70975;SDS011;58635;51.198;6.010;2023-03-01T00:49:39;8.60;;;6.55;;
70975;SDS011;58635;51.198;6.010;2023-03-01T00:52:04;9.55;;;5.53;;
70975;SDS011;58635;51.198;6.010;2023-03-01T00:54:30;7.72;;;5.90;;
70975;SDS011;58635;51.198;6.010;2023-03-01T00:56:55;8.80;;;6.03;;
70975;SDS011;58635;51.198;6.010;2023-03-01T00:59:20;9.00;;;5.60;;
70975;SDS011;58635;51.198;6.010;2023-03-01T01:01:46;8.60;;;6.38;;
70975;SDS011;58635;51.198;6.010;2023-03-01T01:04:12;9.27;;;5.75;;
70975;SDS011;58635;51.198;6.010;2023-03-01T01:09:07;9.50;;;6.20;;
70975;SDS011;58635;51.198;6.010;2023-03-01T01:11:34;10.07;;;6.60;;
70975;SDS011;58635;51.198;6.010;2023-03-01T01:14:01;9.23;;;6.20;;
70975;SDS011;58635;51.198;6.010;2023-03-01T01:16:27;10.75;;;6.40;;
70975;SDS011;58635;51.198;6.010;2023-03-01T01:18:53;9.05;;;6.47;;
70975;SDS011;58635;51.198;6.010;2023-03-01T01:21:21;11.90;;;5.82;;
70975;SDS011;58635;51.198;6.010;2023-03-01T01:23:48;10.13;;;6.13;;
70975;SDS011;58635;51.198;6.010;2023-03-01T01:26:18;9.50;;;6.32;;
70975;SDS011;58635;51.198;6.010;2023-03-01T01:28:46;9.63;;;5.97;;
70975;SDS011;58635;51.198;6.010;2023-03-01T01:31:12;7.95;;;6.13;;
70975;SDS011;58635;51.198;6.010;2023-03-01T01:33:37;9.07;;;5.93;;
70975;SDS011;58635;51.198;6.010;2023-03-01T01:36:03;8.38;;;5.80;;
70975;SDS011;58635;51.198;6.010;2023-03-01T01:38:30;8.82;;;6.10;;
70975;SDS011;58635;51.198;6.010;2023-03-01T01:40:55;7.88;;;6.00;;
70975;SDS011;58635;51.198;6.010;2023-03-01T01:46:44;9.68;;;6.53;;
70975;SDS011;58635;51.198;6.010;2023-03-01T01:49:02;8.50;;;6.07;;
70975;SDS011;58635;51.198;6.010;2023-03-01T01:51:32;9.80;;;6.25;;
70975;SDS011;58635;51.198;6.010;2023-03-01T01:54:25;7.95;;;5.93;;
70975;SDS011;58635;51.198;6.010;2023-03-01T01:57:07;8.48;;;6.05;;
70975;SDS011;58635;51.198;6.010;2023-03-01T01:59:37;8.95;;;6.25;;
70975;SDS011;58635;51.198;6.010;2023-03-01T02:02:04;10.18;;;6.13;;
70975;SDS011;58635;51.198;6.010;2023-03-01T02:04:30;8.13;;;6.40;;
70975;SDS011;58635;51.198;6.010;2023-03-01T02:06:58;9.95;;;6.25;;
70975;SDS011;58635;51.198;6.010;2023-03-01T02:09:25;9.38;;;6.40;;
70975;SDS011;58635;51.198;6.010;2023-03-01T02:11:51;8.35;;;6.25;;
70975;SDS011;58635;51.198;6.010;2023-03-01T02:14:18;9.38;;;6.70;;
70975;SDS011;58635;51.198;6.010;2023-03-01T02:16:43;9.43;;;6.35;;
70975;SDS011;58635;51.198;6.010;2023-03-01T02:19:10;8.00;;;6.38;;
70975;SDS011;58635;51.198;6.010;2023-03-01T02:27:55;10.32;;;6.50;;
70975;SDS011;58635;51.198;6.010;2023-03-01T02:30:48;9.05;;;6.43;;
70975;SDS011;58635;51.198;6.010;2023-03-01T02:33:34;9.35;;;6.57;;
70975;SDS011;58635;51.198;6.010;2023-03-01T02:36:05;9.02;;;6.97;;
70975;SDS011;58635;51.198;6.010;2023-03-01T02:38:34;10.32;;;7.07;;
70975;SDS011;58635;51.198;6.010;2023-03-01T02:41:00;9.98;;;6.50;;
70975;SDS011;58635;51.198;6.010;2023-03-01T02:43:31;12.27;;;6.88;;
70975;SDS011;58635;51.198;6.010;2023-03-01T02:45:58;12.77;;;7.20;;
70975;SDS011;58635;51.198;6.010;2023-03-01T02:48:37;11.10;;;7.20;;
70975;SDS011;58635;51.198;6.010;2023-03-01T02:56:25;8.90;;;6.53;;
70975;SDS011;58635;51.198;6.010;2023-03-01T02:58:51;9.63;;;6.53;;
70975;SDS011;58635;51.198;6.010;2023-03-01T03:01:18;8.70;;;6.18;;
70975;SDS011;58635;51.198;6.010;2023-03-01T03:03:44;10.48;;;7.10;;
70975;SDS011;58635;51.198;6.010;2023-03-01T03:06:10;9.00;;;6.38;;
70975;SDS011;58635;51.198;6.010;2023-03-01T03:08:35;10.38;;;6.95;;
70975;SDS011;58635;51.198;6.010;2023-03-01T03:11:01;9.43;;;6.78;;
70975;SDS011;58635;51.198;6.010;2023-03-01T03:13:27;10.43;;;6.57;;
70975;SDS011;58635;51.198;6.010;2023-03-01T03:15:54;8.93;;;6.55;;
70975;SDS011;58635;51.198;6.010;2023-03-01T03:18:23;9.40;;;6.13;;
70975;SDS011;58635;51.198;6.010;2023-03-01T03:20:51;11.40;;;7.10;;
70975;SDS011;58635;51.198;6.010;2023-03-01T03:23:18;10.20;;;6.88;;
70975;SDS011;58635;51.198;6.010;2023-03-01T03:25:44;10.93;;;7.20;;
70975;SDS011;58635;51.198;6.010;2023-03-01T03:28:12;8.80;;;6.32;;
70975;SDS011;58635;51.198;6.010;2023-03-01T03:30:38;9.98;;;6.70;;
70975;SDS011;58635;51.198;6.010;2023-03-01T03:33:06;8.57;;;6.50;;
70975;SDS011;58635;51.198;6.010;2023-03-01T03:35:33;13.57;;;7.20;;
70975;SDS011;58635;51.198;6.010;2023-03-01T03:38:04;11.82;;;7.05;;
70975;SDS011;58635;51.198;6.010;2023-03-01T03:40:35;11.25;;;6.95;;
70975;SDS011;58635;51.198;6.010;2023-03-01T03:43:03;11.52;;;7.07;;
70975;SDS011;58635;51.198;6.010;2023-03-01T03:45:30;9.40;;;6.35;;
70975;SDS011;58635;51.198;6.010;2023-03-01T03:47:58;10.77;;;7.32;;
70975;SDS011;58635;51.198;6.010;2023-03-01T03:50:23;11.93;;;7.03;;
70975;SDS011;58635;51.198;6.010;2023-03-01T03:52:49;12.90;;;6.07;;
70975;SDS011;58635;51.198;6.010;2023-03-01T03:55:14;11.73;;;6.93;;
70975;SDS011;58635;51.198;6.010;2023-03-01T03:57:44;12.40;;;6.97;;
70975;SDS011;58635;51.198;6.010;2023-03-01T04:00:16;10.80;;;6.93;;
70975;SDS011;58635;51.198;6.010;2023-03-01T04:02:43;10.75;;;7.20;;
70975;SDS011;58635;51.198;6.010;2023-03-01T04:05:10;9.85;;;7.13;;
70975;SDS011;58635;51.198;6.010;2023-03-01T04:07:37;10.93;;;6.97;;
70975;SDS011;58635;51.198;6.010;2023-03-01T04:10:04;12.02;;;6.80;;
70975;SDS011;58635;51.198;6.010;2023-03-01T04:12:32;9.05;;;6.90;;
70975;SDS011;58635;51.198;6.010;2023-03-01T04:14:59;12.65;;;7.22;;
70975;SDS011;58635;51.198;6.010;2023-03-01T04:17:25;11.07;;;7.80;;
70975;SDS011;58635;51.198;6.010;2023-03-01T04:19:50;10.82;;;7.25;;
70975;SDS011;58635;51.198;6.010;2023-03-01T04:22:16;10.18;;;7.65;;
70975;SDS011;58635;51.198;6.010;2023-03-01T04:24:43;10.13;;;7.25;;
70975;SDS011;58635;51.198;6.010;2023-03-01T04:27:09;11.45;;;7.63;;
70975;SDS011;58635;51.198;6.010;2023-03-01T04:29:35;10.55;;;7.05;;
70975;SDS011;58635;51.198;6.010;2023-03-01T04:32:00;12.65;;;7.45;;
70975;SDS011;58635;51.198;6.010;2023-03-01T04:34:26;9.85;;;7.13;;
70975;SDS011;58635;51.198;6.010;2023-03-01T04:36:54;9.75;;;7.15;;
70975;SDS011;58635;51.198;6.010;2023-03-01T04:39:19;9.88;;;6.53;;
70975;SDS011;58635;51.198;6.010;2023-03-01T04:41:45;11.32;;;7.25;;
70975;SDS011;58635;51.198;6.010;2023-03-01T04:44:10;10.23;;;7.00;;
70975;SDS011;58635;51.198;6.010;2023-03-01T04:46:36;11.57;;;6.93;;
70975;SDS011;58635;51.198;6.010;2023-03-01T04:49:02;10.75;;;7.30;;
70975;SDS011;58635;51.198;6.010;2023-03-01T04:51:28;10.48;;;7.47;;
70975;SDS011;58635;51.198;6.010;2023-03-01T04:53:53;9.48;;;7.20;;
70975;SDS011;58635;51.198;6.010;2023-03-01T04:56:19;11.32;;;7.43;;
70975;SDS011;58635;51.198;6.010;2023-03-01T04:58:45;11.20;;;7.50;;
70975;SDS011;58635;51.198;6.010;2023-03-01T05:01:11;10.77;;;7.18;;
70975;SDS011;58635;51.198;6.010;2023-03-01T05:03:46;11.13;;;7.10;;
70975;SDS011;58635;51.198;6.010;2023-03-01T05:06:13;10.95;;;7.57;;
70975;SDS011;58635;51.198;6.010;2023-03-01T05:08:39;13.50;;;7.30;;
70975;SDS011;58635;51.198;6.010;2023-03-01T05:11:06;9.40;;;7.07;;
70975;SDS011;58635;51.198;6.010;2023-03-01T05:13:33;10.23;;;7.15;;
70975;SDS011;58635;51.198;6.010;2023-03-01T05:16:00;11.18;;;7.63;;
70975;SDS011;58635;51.198;6.010;2023-03-01T05:18:27;11.90;;;6.63;;
70975;SDS011;58635;51.198;6.010;2023-03-01T05:20:55;10.68;;;7.53;;
70975;SDS011;58635;51.198;6.010;2023-03-01T05:23:29;11.27;;;7.35;;
70975;SDS011;58635;51.198;6.010;2023-03-01T05:25:57;15.32;;;7.75;;
70975;SDS011;58635;51.198;6.010;2023-03-01T05:28:24;10.20;;;7.07;;
70975;SDS011;58635;51.198;6.010;2023-03-01T05:30:50;10.68;;;7.57;;
70975;SDS011;58635;51.198;6.010;2023-03-01T05:33:16;10.25;;;7.45;;
70975;SDS011;58635;51.198;6.010;2023-03-01T05:35:43;11.25;;;6.88;;
70975;SDS011;58635;51.198;6.010;2023-03-01T05:38:10;13.93;;;7.38;;
70975;SDS011;58635;51.198;6.010;2023-03-01T05:40:40;11.18;;;7.47;;
70975;SDS011;58635;51.198;6.010;2023-03-01T05:43:07;10.25;;;7.03;;
70975;SDS011;58635;51.198;6.010;2023-03-01T05:45:32;10.55;;;7.68;;
70975;SDS011;58635;51.198;6.010;2023-03-01T05:47:58;10.85;;;7.53;;
70975;SDS011;58635;51.198;6.010;2023-03-01T05:50:25;11.05;;;7.05;;
70975;SDS011;58635;51.198;6.010;2023-03-01T05:52:56;10.20;;;7.22;;
70975;SDS011;58635;51.198;6.010;2023-03-01T05:55:27;10.98;;;7.22;;
70975;SDS011;58635;51.198;6.010;2023-03-01T05:57:57;10.57;;;7.53;;
70975;SDS011;58635;51.198;6.010;2023-03-01T06:00:23;11.60;;;6.70;;
70975;SDS011;58635;51.198;6.010;2023-03-01T06:02:49;10.50;;;6.60;;
70975;SDS011;58635;51.198;6.010;2023-03-01T06:05:16;10.27;;;7.45;;
70975;SDS011;58635;51.198;6.010;2023-03-01T06:07:43;9.85;;;7.25;;
70975;SDS011;58635;51.198;6.010;2023-03-01T06:10:09;13.07;;;8.10;;
70975;SDS011;58635;51.198;6.010;2023-03-01T06:12:37;11.05;;;7.60;;
70975;SDS011;58635;51.198;6.010;2023-03-01T06:15:03;11.82;;;7.57;;
70975;SDS011;58635;51.198;6.010;2023-03-01T06:17:29;11.27;;;7.63;;
70975;SDS011;58635;51.198;6.010;2023-03-01T06:19:57;11.02;;;7.53;;
70975;SDS011;58635;51.198;6.010;2023-03-01T06:22:23;13.80;;;7.50;;
70975;SDS011;58635;51.198;6.010;2023-03-01T06:24:48;11.40;;;6.85;;
70975;SDS011;58635;51.198;6.010;2023-03-01T06:27:14;11.35;;;7.25;;
70975;SDS011;58635;51.198;6.010;2023-03-01T06:29:39;11.00;;;7.82;;
70975;SDS011;58635;51.198;6.010;2023-03-01T06:32:05;10.93;;;7.07;;
70975;SDS011;58635;51.198;6.010;2023-03-01T06:34:30;10.55;;;7.15;;
70975;SDS011;58635;51.198;6.010;2023-03-01T06:36:56;13.82;;;7.38;;
70975;SDS011;58635;51.198;6.010;2023-03-01T06:39:21;13.82;;;7.78;;
70975;SDS011;58635;51.198;6.010;2023-03-01T06:41:47;10.52;;;7.15;;
70975;SDS011;58635;51.198;6.010;2023-03-01T06:44:12;8.75;;;6.78;;
70975;SDS011;58635;51.198;6.010;2023-03-01T06:46:38;11.57;;;7.72;;
70975;SDS011;58635;51.198;6.010;2023-03-01T06:49:04;10.25;;;7.38;;
70975;SDS011;58635;51.198;6.010;2023-03-01T06:51:34;10.52;;;7.35;;
70975;SDS011;58635;51.198;6.010;2023-03-01T06:54:00;12.18;;;8.13;;
70975;SDS011;58635;51.198;6.010;2023-03-01T06:56:25;11.45;;;8.00;;
70975;SDS011;58635;51.198;6.010;2023-03-01T06:58:50;11.77;;;7.50;;
70975;SDS011;58635;51.198;6.010;2023-03-01T07:01:16;13.30;;;9.20;;
70975;SDS011;58635;51.198;6.010;2023-03-01T07:03:41;11.60;;;7.13;;
70975;SDS011;58635;51.198;6.010;2023-03-01T07:06:09;10.10;;;7.60;;
70975;SDS011;58635;51.198;6.010;2023-03-01T07:08:35;11.70;;;8.07;;
70975;SDS011;58635;51.198;6.010;2023-03-01T07:11:00;11.57;;;7.90;;
70975;SDS011;58635;51.198;6.010;2023-03-01T07:13:27;11.90;;;7.30;;
70975;SDS011;58635;51.198;6.010;2023-03-01T07:15:53;14.35;;;8.40;;
70975;SDS011;58635;51.198;6.010;2023-03-01T07:18:18;10.65;;;7.82;;
70975;SDS011;58635;51.198;6.010;2023-03-01T07:20:43;13.05;;;8.00;;
70975;SDS011;58635;51.198;6.010;2023-03-01T07:23:09;14.30;;;8.18;;
70975;SDS011;58635;51.198;6.010;2023-03-01T07:25:34;11.13;;;8.35;;
70975;SDS011;58635;51.198;6.010;2023-03-01T07:28:00;13.85;;;8.32;;
70975;SDS011;58635;51.198;6.010;2023-03-01T07:30:25;12.00;;;8.15;;
70975;SDS011;58635;51.198;6.010;2023-03-01T07:32:53;12.80;;;8.18;;
70975;SDS011;58635;51.198;6.010;2023-03-01T07:35:19;11.70;;;8.30;;
70975;SDS011;58635;51.198;6.010;2023-03-01T07:37:44;14.65;;;8.05;;
70975;SDS011;58635;51.198;6.010;2023-03-01T07:40:10;12.52;;;7.88;;
70975;SDS011;58635;51.198;6.010;2023-03-01T07:42:36;11.98;;;8.23;;
70975;SDS011;58635;51.198;6.010;2023-03-01T07:45:02;15.98;;;8.52;;
70975;SDS011;58635;51.198;6.010;2023-03-01T07:47:28;13.13;;;8.35;;
70975;SDS011;58635;51.198;6.010;2023-03-01T07:49:53;11.68;;;7.90;;
70975;SDS011;58635;51.198;6.010;2023-03-01T07:52:18;11.65;;;7.80;;
70975;SDS011;58635;51.198;6.010;2023-03-01T07:54:44;10.73;;;7.72;;
70975;SDS011;58635;51.198;6.010;2023-03-01T07:57:09;13.50;;;8.50;;
70975;SDS011;58635;51.198;6.010;2023-03-01T07:59:35;12.35;;;8.07;;
70975;SDS011;58635;51.198;6.010;2023-03-01T08:02:01;15.25;;;8.65;;
70975;SDS011;58635;51.198;6.010;2023-03-01T08:04:26;13.05;;;8.68;;
70975;SDS011;58635;51.198;6.010;2023-03-01T08:06:52;15.27;;;8.55;;
70975;SDS011;58635;51.198;6.010;2023-03-01T08:09:18;13.55;;;8.50;;
70975;SDS011;58635;51.198;6.010;2023-03-01T08:11:43;13.80;;;8.18;;
70975;SDS011;58635;51.198;6.010;2023-03-01T08:14:09;14.70;;;8.90;;
70975;SDS011;58635;51.198;6.010;2023-03-01T08:16:35;13.68;;;8.18;;
70975;SDS011;58635;51.198;6.010;2023-03-01T08:19:19;12.60;;;7.72;;
70975;SDS011;58635;51.198;6.010;2023-03-01T08:21:45;11.70;;;8.38;;
70975;SDS011;58635;51.198;6.010;2023-03-01T08:24:10;14.10;;;8.40;;
70975;SDS011;58635;51.198;6.010;2023-03-01T08:26:35;13.13;;;9.10;;
70975;SDS011;58635;51.198;6.010;2023-03-01T08:29:02;13.68;;;8.60;;
70975;SDS011;58635;51.198;6.010;2023-03-01T08:31:34;13.50;;;8.43;;
70975;SDS011;58635;51.198;6.010;2023-03-01T08:34:03;17.08;;;9.48;;
70975;SDS011;58635;51.198;6.010;2023-03-01T08:36:32;14.95;;;8.55;;
70975;SDS011;58635;51.198;6.010;2023-03-01T08:39:01;14.93;;;8.93;;
70975;SDS011;58635;51.198;6.010;2023-03-01T08:41:28;14.57;;;9.20;;
70975;SDS011;58635;51.198;6.010;2023-03-01T08:43:53;13.57;;;9.18;;
70975;SDS011;58635;51.198;6.010;2023-03-01T08:46:24;13.88;;;8.65;;
70975;SDS011;58635;51.198;6.010;2023-03-01T08:48:50;12.32;;;8.75;;
70975;SDS011;58635;51.198;6.010;2023-03-01T08:51:16;13.48;;;9.10;;
70975;SDS011;58635;51.198;6.010;2023-03-01T08:53:43;12.15;;;9.13;;
70975;SDS011;58635;51.198;6.010;2023-03-01T08:56:09;15.10;;;9.07;;
70975;SDS011;58635;51.198;6.010;2023-03-01T08:58:35;14.43;;;9.65;;
70975;SDS011;58635;51.198;6.010;2023-03-01T09:01:06;16.05;;;9.45;;
70975;SDS011;58635;51.198;6.010;2023-03-01T09:03:33;14.43;;;9.60;;
70975;SDS011;58635;51.198;6.010;2023-03-01T09:06:01;13.88;;;8.57;;
70975;SDS011;58635;51.198;6.010;2023-03-01T09:08:28;13.20;;;9.27;;
70975;SDS011;58635;51.198;6.010;2023-03-01T09:10:54;15.00;;;9.63;;
70975;SDS011;58635;51.198;6.010;2023-03-01T09:13:19;13.75;;;9.25;;
70975;SDS011;58635;51.198;6.010;2023-03-01T09:15:44;15.30;;;9.25;;
70975;SDS011;58635;51.198;6.010;2023-03-01T09:18:10;15.20;;;8.95;;
70975;SDS011;58635;51.198;6.010;2023-03-01T09:20:35;14.25;;;9.63;;
70975;SDS011;58635;51.198;6.010;2023-03-01T09:23:01;13.20;;;9.10;;
70975;SDS011;58635;51.198;6.010;2023-03-01T09:25:27;12.27;;;9.07;;
70975;SDS011;58635;51.198;6.010;2023-03-01T09:27:53;15.63;;;9.55;;
70975;SDS011;58635;51.198;6.010;2023-03-01T09:30:19;14.68;;;9.35;;
70975;SDS011;58635;51.198;6.010;2023-03-01T09:32:45;13.00;;;8.18;;
70975;SDS011;58635;51.198;6.010;2023-03-01T09:35:11;14.68;;;9.85;;
70975;SDS011;58635;51.198;6.010;2023-03-01T09:37:37;15.00;;;9.63;;
70975;SDS011;58635;51.198;6.010;2023-03-01T09:40:03;15.20;;;9.20;;
70975;SDS011;58635;51.198;6.010;2023-03-01T09:42:31;14.45;;;9.20;;
70975;SDS011;58635;51.198;6.010;2023-03-01T09:45:03;14.57;;;9.38;;
70975;SDS011;58635;51.198;6.010;2023-03-01T09:47:35;16.45;;;9.15;;
70975;SDS011;58635;51.198;6.010;2023-03-01T09:50:18;14.38;;;9.50;;
70975;SDS011;58635;51.198;6.010;2023-03-01T09:53:04;15.50;;;9.50;;
70975;SDS011;58635;51.198;6.010;2023-03-01T09:58:47;12.75;;;9.15;;
70975;SDS011;58635;51.198;6.010;2023-03-01T10:09:36;15.55;;;9.93;;
70975;SDS011;58635;51.198;6.010;2023-03-01T10:12:09;14.43;;;9.48;;
70975;SDS011;58635;51.198;6.010;2023-03-01T10:14:43;15.10;;;9.35;;
70975;SDS011;58635;51.198;6.010;2023-03-01T10:17:30;14.60;;;9.45;;
70975;SDS011;58635;51.198;6.010;2023-03-01T10:22:54;15.25;;;9.85;;
70975;SDS011;58635;51.198;6.010;2023-03-01T10:28:01;13.05;;;9.57;;
70975;SDS011;58635;51.198;6.010;2023-03-01T10:30:35;15.75;;;9.50;;
70975;SDS011;58635;51.198;6.010;2023-03-01T10:33:06;14.48;;;9.15;;
70975;SDS011;58635;51.198;6.010;2023-03-01T10:35:42;15.13;;;9.88;;
70975;SDS011;58635;51.198;6.010;2023-03-01T10:38:09;12.68;;;8.95;;
70975;SDS011;58635;51.198;6.010;2023-03-01T10:40:36;15.80;;;9.38;;
70975;SDS011;58635;51.198;6.010;2023-03-01T10:44:08;16.13;;;9.90;;
70975;SDS011;58635;51.198;6.010;2023-03-01T10:46:27;13.20;;;8.73;;
70975;SDS011;58635;51.198;6.010;2023-03-01T10:51:35;15.48;;;9.77;;
70975;SDS011;58635;51.198;6.010;2023-03-01T10:54:01;14.68;;;9.70;;
70975;SDS011;58635;51.198;6.010;2023-03-01T10:56:28;15.68;;;9.52;;
70975;SDS011;58635;51.198;6.010;2023-03-01T10:59:20;13.25;;;9.18;;
70975;SDS011;58635;51.198;6.010;2023-03-01T11:02:01;13.77;;;9.18;;
70975;SDS011;58635;51.198;6.010;2023-03-01T11:04:47;13.93;;;8.27;;
70975;SDS011;58635;51.198;6.010;2023-03-01T11:07:22;14.00;;;7.85;;
70975;SDS011;58635;51.198;6.010;2023-03-01T11:09:47;10.43;;;7.32;;
70975;SDS011;58635;51.198;6.010;2023-03-01T11:12:13;12.18;;;8.43;;
70975;SDS011;58635;51.198;6.010;2023-03-01T11:15:15;14.07;;;8.38;;
70975;SDS011;58635;51.198;6.010;2023-03-01T11:17:44;11.88;;;7.90;;
70975;SDS011;58635;51.198;6.010;2023-03-01T11:22:53;12.35;;;7.78;;
70975;SDS011;58635;51.198;6.010;2023-03-01T11:25:21;12.73;;;8.05;;
70975;SDS011;58635;51.198;6.010;2023-03-01T11:27:51;13.02;;;8.18;;
70975;SDS011;58635;51.198;6.010;2023-03-01T11:30:52;13.02;;;8.15;;
70975;SDS011;58635;51.198;6.010;2023-03-01T11:41:15;14.38;;;8.48;;
70975;SDS011;58635;51.198;6.010;2023-03-01T11:46:28;13.10;;;8.65;;
70975;SDS011;58635;51.198;6.010;2023-03-01T11:57:01;15.43;;;9.20;;
70975;SDS011;58635;51.198;6.010;2023-03-01T12:07:32;13.00;;;8.45;;
70975;SDS011;58635;51.198;6.010;2023-03-01T12:26:30;11.48;;;8.30;;
70975;SDS011;58635;51.198;6.010;2023-03-01T12:31:53;11.45;;;8.20;;
70975;SDS011;58635;51.198;6.010;2023-03-01T12:34:40;15.93;;;8.45;;
70975;SDS011;58635;51.198;6.010;2023-03-01T12:40:21;13.13;;;8.98;;
70975;SDS011;58635;51.198;6.010;2023-03-01T12:48:40;13.55;;;8.48;;
70975;SDS011;58635;51.198;6.010;2023-03-01T12:51:17;16.65;;;8.98;;
70975;SDS011;58635;51.198;6.010;2023-03-01T12:53:48;12.68;;;8.38;;
70975;SDS011;58635;51.198;6.010;2023-03-01T12:56:17;13.10;;;8.25;;
70975;SDS011;58635;51.198;6.010;2023-03-01T13:01:26;12.80;;;8.43;;
70975;SDS011;58635;51.198;6.010;2023-03-01T13:12:46;10.90;;;7.53;;
70975;SDS011;58635;51.198;6.010;2023-03-01T13:15:37;11.05;;;7.35;;
70975;SDS011;58635;51.198;6.010;2023-03-01T13:18:03;12.88;;;7.22;;
70975;SDS011;58635;51.198;6.010;2023-03-01T13:20:53;9.93;;;7.05;;
70975;SDS011;58635;51.198;6.010;2023-03-01T13:31:06;10.68;;;6.82;;
70975;SDS011;58635;51.198;6.010;2023-03-01T13:33:33;9.10;;;6.50;;
70975;SDS011;58635;51.198;6.010;2023-03-01T13:36:05;11.25;;;7.38;;
70975;SDS011;58635;51.198;6.010;2023-03-01T13:46:46;11.88;;;7.65;;
70975;SDS011;58635;51.198;6.010;2023-03-01T13:49:16;9.82;;;6.68;;
70975;SDS011;58635;51.198;6.010;2023-03-01T13:51:48;12.50;;;7.35;;
70975;SDS011;58635;51.198;6.010;2023-03-01T13:54:15;8.55;;;6.57;;
70975;SDS011;58635;51.198;6.010;2023-03-01T13:56:51;10.18;;;6.15;;
70975;SDS011;58635;51.198;6.010;2023-03-01T13:59:19;10.65;;;6.47;;
70975;SDS011;58635;51.198;6.010;2023-03-01T14:01:53;9.40;;;6.43;;
70975;SDS011;58635;51.198;6.010;2023-03-01T14:06:46;9.43;;;5.90;;
70975;SDS011;58635;51.198;6.010;2023-03-01T14:09:18;8.98;;;5.78;;
70975;SDS011;58635;51.198;6.010;2023-03-01T14:14:42;9.10;;;5.95;;
70975;SDS011;58635;51.198;6.010;2023-03-01T14:22:58;8.57;;;5.90;;
70975;SDS011;58635;51.198;6.010;2023-03-01T14:25:31;8.73;;;6.28;;
70975;SDS011;58635;51.198;6.010;2023-03-01T14:28:03;9.95;;;6.28;;
70975;SDS011;58635;51.198;6.010;2023-03-01T14:30:41;8.77;;;5.68;;
70975;SDS011;58635;51.198;6.010;2023-03-01T14:33:25;10.20;;;6.15;;
70975;SDS011;58635;51.198;6.010;2023-03-01T14:38:23;11.07;;;5.47;;
70975;SDS011;58635;51.198;6.010;2023-03-01T14:40:57;9.57;;;5.53;;
70975;SDS011;58635;51.198;6.010;2023-03-01T14:43:26;7.90;;;5.03;;
70975;SDS011;58635;51.198;6.010;2023-03-01T14:45:54;10.02;;;6.03;;
70975;SDS011;58635;51.198;6.010;2023-03-01T14:48:20;9.23;;;6.03;;
70975;SDS011;58635;51.198;6.010;2023-03-01T14:50:46;11.50;;;6.00;;
70975;SDS011;58635;51.198;6.010;2023-03-01T14:53:19;8.30;;;5.68;;
70975;SDS011;58635;51.198;6.010;2023-03-01T14:55:48;8.68;;;5.97;;
70975;SDS011;58635;51.198;6.010;2023-03-01T14:58:19;10.32;;;5.85;;
70975;SDS011;58635;51.198;6.010;2023-03-01T15:00:53;7.50;;;5.75;;
70975;SDS011;58635;51.198;6.010;2023-03-01T15:06:02;9.63;;;5.70;;
70975;SDS011;58635;51.198;6.010;2023-03-01T15:08:30;8.95;;;5.70;;
70975;SDS011;58635;51.198;6.010;2023-03-01T15:11:16;8.13;;;6.03;;
70975;SDS011;58635;51.198;6.010;2023-03-01T15:13:47;9.30;;;6.38;;
70975;SDS011;58635;51.198;6.010;2023-03-01T15:16:14;8.65;;;6.07;;
70975;SDS011;58635;51.198;6.010;2023-03-01T15:18:47;10.02;;;5.60;;
70975;SDS011;58635;51.198;6.010;2023-03-01T15:21:22;11.80;;;6.15;;
70975;SDS011;58635;51.198;6.010;2023-03-01T15:23:54;7.47;;;5.68;;
70975;SDS011;58635;51.198;6.010;2023-03-01T15:26:31;9.23;;;6.15;;
70975;SDS011;58635;51.198;6.010;2023-03-01T15:29:01;9.13;;;6.25;;
70975;SDS011;58635;51.198;6.010;2023-03-01T15:31:28;9.52;;;6.45;;
70975;SDS011;58635;51.198;6.010;2023-03-01T15:34:39;10.38;;;6.43;;
70975;SDS011;58635;51.198;6.010;2023-03-01T15:36:51;10.60;;;6.88;;
70975;SDS011;58635;51.198;6.010;2023-03-01T15:44:38;12.00;;;6.35;;
70975;SDS011;58635;51.198;6.010;2023-03-01T15:47:23;10.75;;;6.10;;
70975;SDS011;58635;51.198;6.010;2023-03-01T15:49:52;10.27;;;6.45;;
70975;SDS011;58635;51.198;6.010;2023-03-01T15:52:41;9.95;;;6.38;;
70975;SDS011;58635;51.198;6.010;2023-03-01T15:55:06;8.88;;;6.03;;
70975;SDS011;58635;51.198;6.010;2023-03-01T15:57:40;10.13;;;7.05;;
70975;SDS011;58635;51.198;6.010;2023-03-01T16:00:08;10.93;;;7.38;;
70975;SDS011;58635;51.198;6.010;2023-03-01T16:02:38;13.27;;;7.28;;
70975;SDS011;58635;51.198;6.010;2023-03-01T16:05:04;10.38;;;6.30;;
70975;SDS011;58635;51.198;6.010;2023-03-01T16:07:30;9.57;;;6.45;;
70975;SDS011;58635;51.198;6.010;2023-03-01T16:09:56;10.18;;;6.07;;
70975;SDS011;58635;51.198;6.010;2023-03-01T16:12:22;13.25;;;7.32;;
70975;SDS011;58635;51.198;6.010;2023-03-01T16:14:49;10.75;;;6.40;;
70975;SDS011;58635;51.198;6.010;2023-03-01T16:17:15;11.02;;;6.43;;
70975;SDS011;58635;51.198;6.010;2023-03-01T16:19:41;12.23;;;6.53;;
70975;SDS011;58635;51.198;6.010;2023-03-01T16:22:06;12.77;;;6.75;;
70975;SDS011;58635;51.198;6.010;2023-03-01T16:24:34;10.43;;;6.00;;
70975;SDS011;58635;51.198;6.010;2023-03-01T16:27:01;10.55;;;6.47;;
70975;SDS011;58635;51.198;6.010;2023-03-01T16:29:26;11.90;;;7.00;;
70975;SDS011;58635;51.198;6.010;2023-03-01T16:31:54;12.18;;;6.40;;
70975;SDS011;58635;51.198;6.010;2023-03-01T16:34:19;12.48;;;7.60;;
70975;SDS011;58635;51.198;6.010;2023-03-01T16:36:46;11.50;;;7.35;;
70975;SDS011;58635;51.198;6.010;2023-03-01T16:39:12;10.45;;;6.07;;
70975;SDS011;58635;51.198;6.010;2023-03-01T16:41:37;11.73;;;6.47;;
70975;SDS011;58635;51.198;6.010;2023-03-01T16:44:03;11.32;;;6.78;;
70975;SDS011;58635;51.198;6.010;2023-03-01T16:46:28;11.02;;;6.40;;
70975;SDS011;58635;51.198;6.010;2023-03-01T16:48:54;11.95;;;7.40;;
70975;SDS011;58635;51.198;6.010;2023-03-01T16:51:21;9.38;;;6.88;;
70975;SDS011;58635;51.198;6.010;2023-03-01T16:53:48;11.48;;;6.70;;
70975;SDS011;58635;51.198;6.010;2023-03-01T16:56:14;10.93;;;6.93;;
70975;SDS011;58635;51.198;6.010;2023-03-01T16:58:40;11.68;;;6.93;;
70975;SDS011;58635;51.198;6.010;2023-03-01T17:03:36;10.38;;;7.00;;
70975;SDS011;58635;51.198;6.010;2023-03-01T17:06:04;13.65;;;7.50;;
70975;SDS011;58635;51.198;6.010;2023-03-01T17:08:35;11.38;;;7.03;;
70975;SDS011;58635;51.198;6.010;2023-03-01T17:11:11;12.23;;;6.85;;
70975;SDS011;58635;51.198;6.010;2023-03-01T17:13:40;10.20;;;7.43;;